Time;durP1;ratioP1;P1;durP2;ratioP2;P2;SDS_P1;SDS_P2;PMS_P1;PMS_P2;Temp;Humidity;BMP_temperature;BMP_pressure;BME280_temperature;BME280_humidity;BME280_pressure;Samples;Min_cycle;Max_cycle;Signal;HPM_P1;HPM_P2
2021/12/18 00:02:30;;;;;;;16.63;8.00;;;;;;;2.46;83.34;100344.92;2118679;83;21353;-82
2021/12/18 00:05:30;;;;;;;24.97;8.27;;;;;;;2.48;83.70;100358.41;2118678;84;21000;-82
2021/12/18 00:08:31;;;;;;;25.20;11.47;;;;;;;2.47;83.77;100365.65;2118439;84;21062;-82
2021/12/18 00:11:31;;;;;;;24.67;9.73;;;;;;;2.43;83.79;100358.50;2118791;83;20985;-83
2021/12/18 00:14:32;;;;;;;21.40;9.23;;;;;;;2.43;83.94;100352.05;2137853;83;21384;-83
2021/12/18 00:17:33;;;;;;;19.70;8.23;;;;;;;2.45;84.22;100351.77;2144771;83;21012;-83
2021/12/18 00:20:36;;;;;;;20.67;8.80;;;;;;;2.42;84.15;100355.42;2144494;83;21012;-81
2021/12/18 00:23:35;;;;;;;24.80;9.03;;;;;;;2.36;84.62;100355.00;2144447;83;21002;-81
2021/12/18 00:26:36;;;;;;;16.07;8.20;;;;;;;2.33;84.65;100363.81;2144492;83;20988;-82
2021/12/18 00:29:37;;;;;;;23.30;8.87;;;;;;;2.27;85.08;100368.55;2144528;83;21000;-81
2021/12/18 00:32:37;;;;;;;23.43;9.23;;;;;;;2.21;85.23;100370.31;2144256;83;21043;-81
2021/12/18 00:35:38;;;;;;;19.33;8.87;;;;;;;2.19;85.82;100369.31;2144689;83;20984;-81
2021/12/18 00:38:40;;;;;;;24.77;8.93;;;;;;;2.16;85.97;100370.39;2144554;83;21358;-82
2021/12/18 00:41:59;;;;;;;20.20;9.40;;;;;;;2.12;85.74;100367.11;2144503;83;21007;-81
2021/12/18 00:44:49;;;;;;;22.67;9.07;;;;;;;2.11;85.81;100373.05;2142359;83;21080;-82
2021/12/18 00:47:49;;;;;;;27.23;9.83;;;;;;;2.09;85.96;100369.86;2144681;83;21011;-82
2021/12/18 00:50:50;;;;;;;20.80;9.33;;;;;;;2.09;86.38;100384.03;2144541;83;20944;-81
2021/12/18 00:53:51;;;;;;;24.43;10.20;;;;;;;2.07;86.34;100401.95;2144611;83;20976;-81
2021/12/18 00:56:51;;;;;;;20.37;9.90;;;;;;;2.06;86.42;100409.57;2144502;83;21336;-82
2021/12/18 00:59:54;;;;;;;20.37;9.30;;;;;;;2.03;86.66;100401.23;2144405;83;21047;-82
2021/12/18 01:02:56;;;;;;;22.03;9.90;;;;;;;2.00;86.52;100388.54;2144328;83;21019;-80
2021/12/18 01:05:56;;;;;;;26.70;10.47;;;;;;;1.98;86.54;100387.14;2144481;83;20984;-82
2021/12/18 01:08:57;;;;;;;19.80;9.20;;;;;;;1.98;86.84;100375.95;2144796;83;21344;-80
2021/12/18 01:11:58;;;;;;;22.97;9.90;;;;;;;1.97;87.34;100386.64;2144602;83;21016;-81
2021/12/18 01:24:48;;;;;;;18.73;9.07;;;;;;;1.99;87.51;100408.25;2118160;83;21064;-81
2021/12/18 01:27:48;;;;;;;16.67;8.53;;;;;;;1.98;87.70;100413.29;2117762;83;21004;-82
2021/12/18 01:30:49;;;;;;;21.00;9.47;;;;;;;1.96;87.57;100421.30;2118202;83;20989;-80
2021/12/18 01:33:50;;;;;;;20.83;9.10;;;;;;;1.95;87.60;100431.10;2118543;84;21387;-81
2021/12/18 01:36:50;;;;;;;24.03;9.87;;;;;;;1.94;87.78;100425.45;2118762;83;21037;-81
2021/12/18 01:39:53;;;;;;;21.33;9.17;;;;;;;1.96;87.80;100432.89;2118667;83;20953;-81
2021/12/18 01:46:35;;;;;;;20.53;9.07;;;;;;;1.97;87.54;100439.44;2098922;84;20972;-81
2021/12/18 01:52:37;;;;;;;22.27;9.03;;;;;;;2.00;87.39;100415.58;2118346;83;20973;-80
2021/12/18 01:55:38;;;;;;;20.17;8.87;;;;;;;2.03;87.33;100415.80;2118383;83;21012;-81
2021/12/18 01:58:38;;;;;;;25.90;9.33;;;;;;;2.05;87.24;100416.80;2118663;84;21377;-81
2021/12/18 02:01:39;;;;;;;19.33;8.87;;;;;;;2.05;87.06;100416.80;2118597;84;20992;-80
2021/12/18 02:04:40;;;;;;;21.60;9.63;;;;;;;2.04;86.97;100424.02;2118693;84;20981;-81
2021/12/18 02:07:41;;;;;;;25.30;9.43;;;;;;;2.06;86.96;100423.73;2118685;83;21048;-81
2021/12/18 02:10:53;;;;;;;23.67;8.43;;;;;;;2.09;86.87;100421.38;2118821;83;20957;-80
2021/12/18 02:14:19;;;;;;;19.77;7.63;;;;;;;2.09;86.82;100412.36;2121330;83;21135;-81
2021/12/18 02:20:39;;;;;;;23.93;7.70;;;;;;;2.13;86.68;100404.95;2128528;83;20982;-80
2021/12/18 02:23:28;;;;;;;20.83;8.97;;;;;;;2.14;86.50;100401.98;2125905;84;21463;-81
2021/12/18 02:26:29;;;;;;;18.40;7.77;;;;;;;2.17;86.48;100403.48;2128557;84;20976;-80
2021/12/18 02:29:35;;;;;;;17.63;7.90;;;;;;;2.17;86.32;100399.63;2128552;83;20990;-80
2021/12/18 02:32:34;;;;;;;17.47;7.60;;;;;;;2.15;86.39;100405.06;2128362;84;21032;-80
2021/12/18 02:35:38;;;;;;;17.40;7.50;;;;;;;2.15;86.29;100407.64;2128726;83;21012;-81
2021/12/18 02:39:03;;;;;;;17.87;6.97;;;;;;;2.14;86.24;100412.29;2127713;84;21404;-80
2021/12/18 02:45:07;;;;;;;13.27;7.03;;;;;;;2.11;86.21;100424.95;2128899;83;20984;-81
2021/12/18 02:48:08;;;;;;;15.00;6.47;;;;;;;2.12;86.21;100431.89;2128807;83;21016;-81
2021/12/18 02:51:08;;;;;;;14.00;7.23;;;;;;;2.12;86.20;100429.32;2128820;84;20929;-81
2021/12/18 02:54:09;;;;;;;35.83;14.83;;;;;;;2.12;86.14;100418.62;2129085;84;20933;-81
2021/12/18 02:57:09;;;;;;;42.93;16.70;;;;;;;2.13;86.13;100432.00;2128800;83;21036;-80
2021/12/18 03:00:10;;;;;;;40.47;18.30;;;;;;;2.15;86.13;100442.02;2128940;83;20969;-80
2021/12/18 03:03:11;;;;;;;36.63;14.60;;;;;;;2.16;86.05;100436.47;2128691;83;21028;-81
2021/12/18 03:06:32;;;;;;;25.90;11.50;;;;;;;2.17;85.92;100443.42;2129288;83;20988;-81
2021/12/18 03:19:04;;;;;;;20.93;9.97;;;;;;;2.15;85.85;100423.98;2100508;84;20972;-81
2021/12/18 03:26:00;;;;;;;18.93;7.13;;;;;;;2.20;85.75;100415.30;2129185;83;21032;-81
2021/12/18 03:29:01;;;;;;;15.23;6.90;;;;;;;2.20;85.57;100411.42;2129315;84;21047;-80
2021/12/18 03:32:01;;;;;;;23.17;7.13;;;;;;;2.19;85.64;100420.84;2129188;83;21016;-81
2021/12/18 03:35:02;;;;;;;23.10;7.87;;;;;;;2.20;85.71;100425.59;2129030;84;20965;-80
2021/12/18 03:38:03;;;;;;;24.37;8.67;;;;;;;2.18;85.60;100419.45;2129475;84;21024;-80
2021/12/18 03:41:04;;;;;;;16.80;7.03;;;;;;;2.17;85.67;100429.25;2129256;83;21052;-81
2021/12/18 03:44:04;;;;;;;20.00;7.70;;;;;;;2.19;85.64;100436.30;2129572;84;20989;-80
2021/12/18 03:47:05;;;;;;;23.17;8.60;;;;;;;2.19;85.44;100435.01;2130159;84;21008;-81
2021/12/18 03:50:05;;;;;;;18.27;7.97;;;;;;;2.19;85.42;100434.11;2130201;84;21337;-80
2021/12/18 03:53:06;;;;;;;17.03;7.57;;;;;;;2.20;85.39;100430.75;2130054;84;21025;-80
2021/12/18 03:56:06;;;;;;;20.37;8.70;;;;;;;2.19;85.31;100436.30;2129813;84;21020;-81
2021/12/18 03:59:07;;;;;;;19.97;9.07;;;;;;;2.21;85.19;100452.76;2130069;83;20961;-80
2021/12/18 04:02:07;;;;;;;21.67;8.07;;;;;;;2.20;85.11;100443.23;2129866;83;21005;-80
2021/12/18 04:05:08;;;;;;;17.23;7.47;;;;;;;2.17;84.92;100441.73;2129588;83;21339;-80
2021/12/18 04:08:08;;;;;;;17.50;7.67;;;;;;;2.13;85.01;100432.00;2129476;84;20996;-80
2021/12/18 04:11:09;;;;;;;20.37;8.40;;;;;;;2.12;85.08;100430.22;2129647;84;20984;-80
2021/12/18 04:14:13;;;;;;;16.77;9.53;;;;;;;2.16;84.96;100423.59;2133449;83;21072;-80
2021/12/18 04:17:12;;;;;;;20.00;9.87;;;;;;;2.15;84.94;100417.94;2145269;83;21079;-80
2021/12/18 04:20:12;;;;;;;20.77;8.77;;;;;;;2.14;84.51;100421.30;2145443;83;21039;-80
2021/12/18 04:23:13;;;;;;;20.53;7.50;;;;;;;2.17;84.61;100409.92;2145524;83;20967;-79
2021/12/18 04:26:14;;;;;;;18.90;7.00;;;;;;;2.18;84.56;100413.00;2145177;83;21023;-80
2021/12/18 04:29:14;;;;;;;14.60;6.80;;;;;;;2.20;84.33;100410.14;2145486;83;21021;-80
2021/12/18 04:32:15;;;;;;;14.03;6.30;;;;;;;2.18;83.98;100411.32;2145558;83;20968;-80
2021/12/18 04:35:15;;;;;;;19.43;7.73;;;;;;;2.19;83.91;100416.97;2146298;83;20981;-79
2021/12/18 04:38:16;;;;;;;19.77;7.97;;;;;;;2.21;83.71;100413.22;2146287;83;20980;-80
2021/12/18 04:41:34;;;;;;;18.43;7.97;;;;;;;2.22;83.62;100417.58;2146359;83;20957;-79
2021/12/18 04:44:24;;;;;;;15.83;7.23;;;;;;;2.23;83.57;100412.53;2143944;82;21359;-79
2021/12/18 04:47:25;;;;;;;19.83;9.53;;;;;;;2.23;83.56;100405.20;2146089;83;21008;-80
2021/12/18 04:50:25;;;;;;;24.70;9.90;;;;;;;2.25;83.79;100412.64;2145863;83;21015;-80
2021/12/18 04:53:26;;;;;;;17.27;8.83;;;;;;;2.26;83.86;100410.95;2145372;83;20932;-80
2021/12/18 04:56:26;;;;;;;16.77;8.30;;;;;;;2.26;83.90;100415.72;2144973;83;21051;-80
2021/12/18 04:59:27;;;;;;;18.53;8.70;;;;;;;2.26;83.89;100419.58;2145119;83;20972;-79
2021/12/18 05:02:40;;;;;;;16.10;8.23;;;;;;;2.23;83.76;100415.51;2144788;83;20960;-80
2021/12/18 05:05:39;;;;;;;22.33;8.07;;;;;;;2.19;83.80;100425.09;2145444;83;21004;-80
2021/12/18 05:08:39;;;;;;;15.47;7.23;;;;;;;2.15;83.86;100420.13;2146262;83;21016;-80
2021/12/18 05:11:40;;;;;;;18.43;7.73;;;;;;;2.15;83.99;100423.09;2146286;83;20964;-79
2021/12/18 05:14:41;;;;;;;21.20;7.97;;;;;;;2.15;84.06;100423.09;2140389;83;21083;-80
2021/12/18 05:17:41;;;;;;;20.37;8.03;;;;;;;2.16;83.91;100423.59;2130099;84;21631;-80
2021/12/18 05:20:42;;;;;;;21.77;8.10;;;;;;;2.17;83.88;100426.67;2129800;84;20993;-80
2021/12/18 05:23:45;;;;;;;16.57;8.47;;;;;;;2.17;83.80;100423.70;2129920;83;21016;-80
2021/12/18 05:26:46;;;;;;;25.73;10.77;;;;;;;2.17;83.65;100418.55;2129733;83;21048;-80
2021/12/18 05:29:46;;;;;;;27.93;10.53;;;;;;;2.17;83.75;100427.96;2130005;84;21056;-80
2021/12/18 05:32:47;;;;;;;18.00;9.07;;;;;;;2.20;83.66;100426.89;2129576;84;21331;-80
2021/12/18 05:35:48;;;;;;;20.07;9.17;;;;;;;2.20;83.53;100426.89;2129783;84;21028;-80
2021/12/18 05:38:48;;;;;;;17.20;7.93;;;;;;;2.22;83.58;100438.19;2129430;83;21028;-80
2021/12/18 05:41:50;;;;;;;16.33;8.00;;;;;;;2.20;83.56;100439.38;2129290;84;21003;-79
2021/12/18 05:44:51;;;;;;;20.97;9.60;;;;;;;2.21;83.58;100436.02;2129391;83;21394;-79
2021/12/18 05:47:51;;;;;;;19.80;9.17;;;;;;;2.22;83.62;100435.62;2129622;84;20992;-80
2021/12/18 05:50:53;;;;;;;22.50;9.07;;;;;;;2.22;83.56;100440.77;2129389;83;21044;-80
2021/12/18 05:53:56;;;;;;;28.30;11.63;;;;;;;2.17;83.54;100440.84;2076314;84;21031;-80
2021/12/18 05:56:57;;;;;;;33.13;11.90;;;;;;;2.17;83.69;100452.04;2128831;83;21052;-81
2021/12/18 05:59:57;;;;;;;26.87;11.93;;;;;;;2.18;83.73;100457.70;2128496;83;21008;-81
2021/12/18 06:02:58;;;;;;;30.53;11.83;;;;;;;2.13;83.85;100459.05;2129081;84;20940;-81
2021/12/18 06:05:59;;;;;;;34.77;14.60;;;;;;;2.12;83.96;100467.56;2128384;83;20965;-80
2021/12/18 06:09:00;;;;;;;24.67;12.57;;;;;;;2.13;83.97;100462.02;2129116;83;20984;-80
2021/12/18 06:12:01;;;;;;;22.33;10.80;;;;;;;2.09;84.03;100466.45;2128648;83;21056;-81
2021/12/18 06:15:01;;;;;;;22.77;10.90;;;;;;;2.06;84.19;100455.94;2125515;83;21049;-81
2021/12/18 06:18:02;;;;;;;25.60;11.00;;;;;;;2.05;84.37;100458.02;2119658;83;21013;-81
2021/12/18 06:21:02;;;;;;;27.00;12.63;;;;;;;2.01;84.32;100454.32;2119217;83;20981;-78
2021/12/18 06:24:03;;;;;;;27.57;13.50;;;;;;;2.02;84.50;100453.53;2118467;83;21029;-81
2021/12/18 06:27:03;;;;;;;24.53;12.97;;;;;;;2.02;84.31;100450.96;2119101;84;21036;-81
2021/12/18 06:30:04;;;;;;;22.57;11.30;;;;;;;1.98;84.39;100451.53;2119698;84;21040;-80
2021/12/18 06:33:04;;;;;;;23.37;10.30;;;;;;;1.98;84.49;100449.34;2118996;83;21329;-81
2021/12/18 06:36:05;;;;;;;23.80;11.33;;;;;;;1.99;84.48;100442.12;2119144;84;21013;-81
2021/12/18 06:39:06;;;;;;;19.27;9.43;;;;;;;1.98;84.39;100449.34;2118654;84;20946;-80
2021/12/18 06:42:06;;;;;;;17.87;8.97;;;;;;;1.95;84.29;100449.12;2118418;83;20997;-80
2021/12/18 06:45:07;;;;;;;22.80;7.80;;;;;;;1.91;84.20;100454.06;2119176;84;21016;-80
2021/12/18 06:48:07;;;;;;;18.40;8.17;;;;;;;1.88;83.98;100458.09;2119753;84;21068;-81
2021/12/18 06:51:08;;;;;;;12.90;7.23;;;;;;;1.84;83.95;100457.37;2120179;84;21321;-81
2021/12/18 06:54:08;;;;;;;19.40;8.97;;;;;;;1.81;84.01;100456.77;2120073;83;21021;-82
2021/12/18 06:57:09;;;;;;;19.33;9.07;;;;;;;1.80;84.08;100450.22;2119880;84;21004;-81
2021/12/18 07:00:09;;;;;;;13.90;8.50;;;;;;;1.80;83.87;100443.78;2119887;83;21053;-81
2021/12/18 07:03:10;;;;;;;26.27;9.43;;;;;;;1.80;83.74;100447.64;2119513;84;20988;-81
2021/12/18 07:06:10;;;;;;;21.17;9.93;;;;;;;1.81;83.84;100449.04;2119255;84;20973;-81
2021/12/18 07:09:11;;;;;;;19.77;9.83;;;;;;;1.83;83.53;100444.00;2118733;83;20977;-80
2021/12/18 07:12:11;;;;;;;19.63;9.87;;;;;;;1.83;83.56;100442.32;2119317;83;20953;-80
2021/12/18 07:15:12;;;;;;;20.20;9.97;;;;;;;1.85;83.45;100445.90;2123282;84;21318;-81
2021/12/18 07:18:13;;;;;;;30.20;12.13;;;;;;;1.90;83.43;100443.26;2129557;83;20988;-81
2021/12/18 07:21:13;;;;;;;28.20;14.27;;;;;;;1.94;83.06;100452.09;2129429;83;20984;-81
2021/12/18 07:24:14;;;;;;;29.73;16.23;;;;;;;1.97;82.97;100455.28;2128822;84;21024;-80
2021/12/18 07:27:14;;;;;;;25.97;11.40;;;;;;;1.97;82.49;100442.02;2128780;84;21028;-80
2021/12/18 07:30:15;;;;;;;18.17;9.87;;;;;;;1.97;82.53;100445.88;2128876;83;20989;-80
2021/12/18 07:33:16;;;;;;;17.87;9.77;;;;;;;1.99;82.26;100435.29;2129334;83;20988;-81
2021/12/18 07:36:16;;;;;;;20.63;10.30;;;;;;;1.99;82.35;100440.44;2128751;83;20985;-81
2021/12/18 07:39:17;;;;;;;20.70;9.33;;;;;;;2.04;82.19;100439.48;2128297;83;20937;-79
2021/12/18 07:42:17;;;;;;;18.07;7.90;;;;;;;2.08;81.94;100432.08;2128342;83;20964;-79
2021/12/18 07:45:18;;;;;;;17.13;8.27;;;;;;;2.16;81.24;100431.32;2128556;84;20964;-81
2021/12/18 07:48:18;;;;;;;19.20;9.13;;;;;;;2.18;81.36;100425.88;2128154;83;21356;-80
2021/12/18 07:51:19;;;;;;;16.90;7.77;;;;;;;2.20;80.81;100422.63;2128082;83;20964;-80
2021/12/18 07:54:19;;;;;;;16.40;8.93;;;;;;;2.18;80.86;100411.72;2129135;84;21000;-80
2021/12/18 07:57:20;;;;;;;20.67;8.90;;;;;;;2.16;80.62;100414.19;2128418;84;21040;-80
2021/12/18 08:00:21;;;;;;;26.17;9.17;;;;;;;2.18;80.73;100416.47;2129881;83;21032;-80
2021/12/18 08:03:21;;;;;;;26.27;9.87;;;;;;;2.24;80.26;100414.33;2129261;83;21000;-80
2021/12/18 08:06:22;;;;;;;22.33;11.27;;;;;;;2.27;80.42;100416.22;2129191;83;21005;-81
2021/12/18 08:09:22;;;;;;;24.30;11.97;;;;;;;2.31;80.17;100409.20;2129510;83;20956;-79
2021/12/18 08:12:23;;;;;;;19.90;10.53;;;;;;;2.32;79.64;100408.41;2129083;84;21415;-80
2021/12/18 08:15:24;;;;;;;30.60;11.97;;;;;;;2.31;79.86;100409.20;2129101;84;21377;-80
2021/12/18 08:18:25;;;;;;;24.40;12.43;;;;;;;2.34;80.02;100399.50;2129242;84;20957;-80
2021/12/18 08:21:25;;;;;;;18.07;10.07;;;;;;;2.34;79.31;100400.39;2129378;84;21011;-80
2021/12/18 08:24:26;;;;;;;19.20;10.83;;;;;;;2.32;78.86;100407.13;2129421;83;20988;-81
2021/12/18 08:27:26;;;;;;;21.67;11.57;;;;;;;2.30;79.22;100408.70;2130017;84;21000;-82
2021/12/18 08:30:27;;;;;;;28.40;11.03;;;;;;;2.35;78.90;100414.17;2129512;84;20996;-80
2021/12/18 08:33:27;;;;;;;26.27;11.67;;;;;;;2.36;78.63;100413.38;2129490;83;20997;-80
2021/12/18 08:36:28;;;;;;;24.47;11.13;;;;;;;2.32;79.06;100412.67;2129380;83;20980;-80
2021/12/18 08:39:28;;;;;;;22.27;11.10;;;;;;;2.34;79.40;100418.43;2129553;83;20969;-80
2021/12/18 08:42:29;;;;;;;21.07;11.33;;;;;;;2.38;79.15;100423.01;2129345;84;21004;-80
2021/12/18 08:45:29;;;;;;;22.43;10.60;;;;;;;2.38;78.87;100416.56;2129107;84;20937;-80
2021/12/18 08:48:30;;;;;;;27.33;10.67;;;;;;;2.38;78.64;100410.52;2129442;83;21420;-81
2021/12/18 08:51:31;;;;;;;23.13;11.17;;;;;;;2.39;77.95;100414.48;2128942;83;21334;-80
2021/12/18 08:54:31;;;;;;;27.17;12.37;;;;;;;2.39;78.36;100403.28;2128965;83;21412;-80
2021/12/18 08:57:32;;;;;;;30.97;12.53;;;;;;;2.43;78.73;100407.86;2128138;83;21040;-80
2021/12/18 09:00:33;;;;;;;24.83;12.33;;;;;;;2.51;78.86;100406.70;2128476;84;20929;-80
2021/12/18 09:03:34;;;;;;;21.90;9.80;;;;;;;2.59;78.23;100405.93;2128733;83;20933;-80
2021/12/18 09:06:34;;;;;;;23.23;12.23;;;;;;;2.59;78.03;100402.96;2128753;83;20972;-80
2021/12/18 09:09:35;;;;;;;46.40;19.67;;;;;;;2.61;77.48;100387.62;2129427;83;20933;-81
2021/12/18 09:12:35;;;;;;;30.47;13.70;;;;;;;2.54;77.23;100391.44;2130095;84;21380;-81
2021/12/18 09:15:36;;;;;;;33.87;15.40;;;;;;;2.53;77.87;100386.68;2126795;83;21081;-80
2021/12/18 09:18:36;;;;;;;39.93;16.00;;;;;;;2.58;78.30;100378.37;2119640;83;21044;-81
2021/12/18 09:21:37;;;;;;;30.97;14.43;;;;;;;2.55;77.39;100385.10;2119392;83;21349;-80
2021/12/18 09:24:37;;;;;;;28.17;13.13;;;;;;;2.46;77.52;100385.77;2119248;84;20968;-80
2021/12/18 09:27:38;;;;;;;25.33;12.20;;;;;;;2.43;77.92;100385.95;2119290;84;21023;-81
2021/12/18 09:30:40;;;;;;;23.77;10.37;;;;;;;2.42;78.28;100397.95;2119627;84;21008;-80
2021/12/18 09:33:40;;;;;;;30.10;11.73;;;;;;;2.42;78.30;100399.23;2120274;83;20938;-80
2021/12/18 09:36:41;;;;;;;20.50;11.17;;;;;;;2.44;77.92;100404.49;2120602;84;21012;-79
2021/12/18 09:39:41;;;;;;;21.90;10.43;;;;;;;2.41;78.49;100394.87;2120504;84;21071;-80
2021/12/18 09:42:42;;;;;;;22.77;10.10;;;;;;;2.40;78.27;100391.80;2120055;83;20972;-81
2021/12/18 09:45:45;;;;;;;21.90;10.80;;;;;;;2.38;78.53;100381.77;2119859;83;20981;-80
2021/12/18 09:48:45;;;;;;;23.50;11.50;;;;;;;2.41;78.85;100380.70;2119965;84;20969;-79
2021/12/18 09:51:45;;;;;;;26.53;12.40;;;;;;;2.41;78.42;100378.52;2120936;83;20996;-80
2021/12/18 09:54:46;;;;;;;23.77;11.47;;;;;;;2.39;78.66;100379.70;2120273;83;21001;-80
2021/12/18 09:57:46;;;;;;;25.83;11.10;;;;;;;2.38;78.32;100375.33;2120132;84;21566;-80
2021/12/18 10:00:47;;;;;;;23.50;12.03;;;;;;;2.38;78.54;100361.55;2120168;83;20965;-80
2021/12/18 10:03:49;;;;;;;26.33;12.37;;;;;;;2.38;78.64;100361.55;2120494;84;21346;-80
2021/12/18 10:06:49;;;;;;;24.60;12.23;;;;;;;2.36;78.15;100361.45;2120336;83;21000;-80
2021/12/18 10:09:50;;;;;;;21.93;11.70;;;;;;;2.37;78.53;100365.81;2120417;84;20937;-80
2021/12/18 10:12:50;;;;;;;19.87;11.77;;;;;;;2.44;78.68;100364.15;2119968;84;20961;-81
2021/12/18 10:15:50;;;;;;;33.63;14.47;;;;;;;2.49;78.23;100360.59;2119481;84;21020;-81
2021/12/18 10:18:51;;;;;;;33.80;14.40;;;;;;;2.52;78.49;100351.39;2120468;84;21389;-80
2021/12/18 10:21:51;;;;;;;29.33;14.37;;;;;;;2.54;78.55;100352.37;2120164;84;20997;-81
2021/12/18 10:24:52;;;;;;;30.17;15.73;;;;;;;2.58;78.42;100343.17;2119904;84;20989;-80
2021/12/18 10:27:52;;;;;;;39.63;19.13;;;;;;;2.64;78.48;100329.83;2119375;84;21056;-79
2021/12/18 10:30:53;;;;;;;40.73;17.87;;;;;;;2.66;77.81;100324.38;2119326;83;20965;-79
2021/12/18 10:33:53;;;;;;;34.90;17.63;;;;;;;2.71;78.07;100317.45;2119538;84;21060;-79
2021/12/18 10:36:54;;;;;;;46.33;20.57;;;;;;;2.75;78.14;100306.94;2119580;83;20993;-80
2021/12/18 10:39:54;;;;;;;49.37;23.23;;;;;;;2.84;78.37;100299.80;2119294;84;21011;-80
2021/12/18 10:42:55;;;;;;;50.73;23.50;;;;;;;2.90;77.94;100290.28;2119787;84;21417;-80
2021/12/18 10:45:55;;;;;;;44.17;20.03;;;;;;;2.90;77.58;100287.30;2119420;84;21413;-79
2021/12/18 10:48:56;;;;;;;38.57;20.73;;;;;;;2.88;77.25;100285.03;2119584;84;21048;-80
2021/12/18 10:51:57;;;;;;;41.50;21.70;;;;;;;2.84;77.59;100277.48;2119766;83;20977;-80
2021/12/18 10:54:58;;;;;;;41.33;20.30;;;;;;;2.85;77.71;100274.11;2119440;84;21262;-79
2021/12/18 10:57:58;;;;;;;41.33;20.03;;;;;;;2.85;77.38;100268.06;2118879;84;21029;-80
2021/12/18 11:00:59;;;;;;;39.80;19.20;;;;;;;2.81;77.63;100263.10;2118903;83;21104;-79
2021/12/18 11:03:59;;;;;;;38.47;19.07;;;;;;;2.85;77.14;100247.43;2119565;83;20984;-78
2021/12/18 11:07:00;;;;;;;47.00;21.20;;;;;;;2.88;77.60;100240.78;2119011;83;21425;-79
2021/12/18 11:10:21;;;;;;;48.23;21.80;;;;;;;2.97;77.31;100240.48;2118767;83;20976;-79
2021/12/18 11:16:37;;;;;;;42.87;21.93;;;;;;;2.95;76.92;100220.14;2118434;83;20986;-81
2021/12/18 11:19:39;;;;;;;35.05;20.08;;;;;;;2.92;77.17;100223.81;2118980;84;20972;-79
2021/12/18 11:22:39;;;;;;;43.53;21.20;;;;;;;2.91;76.88;100222.03;2119618;84;20984;-79
2021/12/18 11:25:41;;;;;;;44.50;20.70;;;;;;;2.93;77.49;100219.55;2119697;83;20981;-79
2021/12/18 11:28:41;;;;;;;41.53;19.77;;;;;;;2.89;77.08;100217.17;2119338;84;21028;-80
2021/12/18 11:31:42;;;;;;;43.43;20.93;;;;;;;2.92;77.07;100220.34;2119589;83;21312;-80
2021/12/18 11:34:42;;;;;;;42.37;21.27;;;;;;;2.95;77.44;100218.85;2118981;83;20990;-80
2021/12/18 11:37:43;;;;;;;47.93;23.23;;;;;;;2.97;77.64;100223.71;2119293;83;20961;-80
2021/12/18 11:40:44;;;;;;;40.03;21.23;;;;;;;3.03;77.58;100216.36;2119990;83;21013;-80
2021/12/18 11:43:46;;;;;;;43.80;22.70;;;;;;;3.08;77.47;100207.23;2120247;83;20957;-80
2021/12/18 11:46:47;;;;;;;40.20;20.23;;;;;;;3.08;77.24;100211.48;2119583;83;21013;-80
2021/12/18 11:49:48;;;;;;;33.30;19.70;;;;;;;3.06;77.10;100211.39;2119614;83;20968;-80
2021/12/18 11:52:48;;;;;;;37.77;18.83;;;;;;;3.00;77.17;100216.17;2119811;83;21349;-79
2021/12/18 11:55:49;;;;;;;33.27;19.43;;;;;;;2.95;77.22;100211.12;2119503;84;20987;-79
2021/12/18 11:58:50;;;;;;;36.87;19.93;;;;;;;2.94;77.01;100204.17;2119790;83;20989;-79
2021/12/18 12:01:50;;;;;;;40.20;21.67;;;;;;;2.91;77.37;100189.80;2120168;83;20961;-79
2021/12/18 12:04:50;;;;;;;44.87;22.33;;;;;;;2.96;77.69;100179.37;2119084;83;20953;-79
2021/12/18 12:07:51;;;;;;;38.77;20.47;;;;;;;3.03;77.62;100184.52;2119257;84;21025;-80
2021/12/18 12:10:52;;;;;;;39.50;19.23;;;;;;;2.94;77.56;100178.38;2119130;84;21561;-79
2021/12/18 12:13:52;;;;;;;39.27;20.57;;;;;;;2.85;77.74;100172.64;2118931;84;20957;-80
2021/12/18 12:16:53;;;;;;;39.63;21.17;;;;;;;2.81;78.00;100170.67;2131167;83;21063;-79
2021/12/18 12:19:54;;;;;;;36.33;16.90;;;;;;;2.77;78.00;100159.66;2145296;83;21404;-79
2021/12/18 12:22:54;;;;;;;36.33;17.93;;;;;;;2.71;78.06;100164.43;2145018;83;20968;-79
2021/12/18 12:26:01;;;;;;;33.73;16.57;;;;;;;2.69;78.20;100156.59;2144922;83;20988;-80
2021/12/18 12:28:57;;;;;;;44.50;20.43;;;;;;;2.67;78.27;100160.77;2143861;82;21040;-79
2021/12/18 12:31:58;;;;;;;40.30;18.50;;;;;;;2.66;78.56;100149.95;2144960;83;20949;-79
2021/12/18 12:34:58;;;;;;;38.53;19.17;;;;;;;2.68;78.75;100144.91;2145277;83;20988;-79
2021/12/18 12:37:59;;;;;;;41.73;19.63;;;;;;;2.67;78.49;100147.88;2145937;83;20992;-79
2021/12/18 12:40:59;;;;;;;47.63;21.13;;;;;;;2.65;78.50;100151.15;2145836;83;20948;-79
2021/12/18 12:44:01;;;;;;;30.20;17.27;;;;;;;2.62;78.73;100141.53;2145764;83;20936;-80
2021/12/18 12:47:02;;;;;;;44.03;21.00;;;;;;;2.62;78.93;100131.63;2145706;83;21075;-80
2021/12/18 12:50:02;;;;;;;40.50;19.20;;;;;;;2.65;78.98;100127.95;2145784;83;20965;-81
2021/12/18 12:53:03;;;;;;;39.03;18.33;;;;;;;2.64;78.66;100136.08;2146019;83;21028;-79
2021/12/18 12:56:03;;;;;;;34.83;17.73;;;;;;;2.63;78.96;100111.09;2145624;83;21014;-79
2021/12/18 12:59:04;;;;;;;43.57;21.70;;;;;;;2.65;79.32;100116.34;2145342;83;21007;-79
2021/12/18 13:02:04;;;;;;;39.27;22.27;;;;;;;2.65;79.32;100115.06;2145675;83;20937;-80
2021/12/18 13:05:05;;;;;;;40.17;21.73;;;;;;;2.69;79.49;100122.19;2145679;83;21728;-79
2021/12/18 13:08:05;;;;;;;42.37;21.73;;;;;;;2.65;79.37;100113.77;2145754;83;21016;-80
2021/12/18 13:11:06;;;;;;;45.23;23.40;;;;;;;2.62;79.54;100105.84;2146947;83;21009;-79
2021/12/18 13:14:06;;;;;;;37.93;21.83;;;;;;;2.62;79.75;100118.73;2146594;83;20968;-79
2021/12/18 13:17:07;;;;;;;41.80;22.77;;;;;;;2.63;79.85;100119.22;2134115;83;21052;-79
2021/12/18 13:20:07;;;;;;;40.03;22.63;;;;;;;2.65;79.92;100112.08;2120300;84;21465;-80
2021/12/18 13:23:08;;;;;;;44.47;24.50;;;;;;;2.67;80.10;100110.49;2120437;84;20973;-79
2021/12/18 13:26:08;;;;;;;53.00;27.07;;;;;;;2.69;80.12;100124.77;2120210;83;21005;-81
2021/12/18 13:29:09;;;;;;;45.43;24.37;;;;;;;2.67;80.15;100123.38;2120458;84;21401;-80
2021/12/18 13:32:09;;;;;;;38.33;21.03;;;;;;;2.63;80.36;100121.80;2120298;83;20993;-81
2021/12/18 13:35:10;;;;;;;40.73;23.07;;;;;;;2.59;80.65;100114.24;2119651;84;21547;-79
2021/12/18 13:38:10;;;;;;;38.00;21.77;;;;;;;2.56;80.83;100109.78;2120753;83;21033;-80
2021/12/18 13:41:11;;;;;;;36.57;19.90;;;;;;;2.58;80.89;100099.97;2121054;83;21013;-80
2021/12/18 13:44:11;;;;;;;29.47;19.03;;;;;;;2.53;80.91;100103.14;2120745;84;21005;-81
2021/12/18 13:47:12;;;;;;;36.67;19.63;;;;;;;2.51;81.19;100089.66;2120472;84;21370;-81
2021/12/18 13:50:14;;;;;;;40.10;20.13;;;;;;;2.47;81.10;100087.30;2119823;84;21045;-80
2021/12/18 13:53:15;;;;;;;36.27;20.33;;;;;;;2.50;81.24;100084.02;2119457;84;21369;-80
2021/12/18 13:56:16;;;;;;;40.80;21.37;;;;;;;2.47;81.27;100075.70;2119339;83;20988;-80
2021/12/18 13:59:17;;;;;;;42.97;23.97;;;;;;;2.43;81.33;100076.30;2118875;83;21024;-80
2021/12/18 14:02:17;;;;;;;39.07;22.43;;;;;;;2.43;81.34;100071.14;2119691;83;20925;-79
2021/12/18 14:05:18;;;;;;;40.57;21.50;;;;;;;2.43;81.38;100080.16;2119952;84;21001;-80
2021/12/18 14:08:18;;;;;;;42.60;24.20;;;;;;;2.43;81.38;100087.89;2120516;83;21063;-79
2021/12/18 14:11:26;;;;;;;38.63;21.60;;;;;;;2.45;81.56;100090.56;2120482;83;20953;-81
2021/12/18 14:14:21;;;;;;;46.47;24.57;;;;;;;2.40;81.69;100078.68;2119553;84;21032;-80
2021/12/18 14:17:21;;;;;;;51.93;25.30;;;;;;;2.38;81.80;100072.53;2120398;83;21031;-80
2021/12/18 14:20:22;;;;;;;53.70;25.67;;;;;;;2.35;81.94;100061.14;2120035;84;20989;-80
2021/12/18 14:23:22;;;;;;;62.13;27.90;;;;;;;2.33;82.08;100058.87;2120254;84;21008;-80
2021/12/18 14:26:23;;;;;;;50.03;24.20;;;;;;;2.32;82.50;100043.80;2120319;83;21048;-79
2021/12/18 14:29:24;;;;;;;37.03;20.67;;;;;;;2.31;82.51;100039.45;2120480;83;20988;-80
2021/12/18 14:32:24;;;;;;;53.90;26.57;;;;;;;2.31;82.42;100030.83;2120543;83;21349;-80
2021/12/18 14:35:25;;;;;;;43.47;22.20;;;;;;;2.28;82.61;100028.05;2120454;84;20973;-80
2021/12/18 14:38:26;;;;;;;42.83;23.70;;;;;;;2.28;82.62;100017.35;2120154;83;20954;-80